createdAt,value
2019-02-04T00:01:49.638Z,87373.20
2019-02-04T00:04:16.420Z,87381.78
2019-02-04T00:06:43.317Z,87380.48
2019-02-04T00:09:10.071Z,87383.59
2019-02-04T00:11:36.799Z,87392.64
2019-02-04T00:14:03.642Z,87396.36
2019-02-04T00:16:40.338Z,87400.13
2019-02-04T00:18:58.894Z,87405.26
2019-02-04T00:21:25.695Z,87408.09
2019-02-04T00:23:52.433Z,87411.50
2019-02-04T00:26:19.165Z,87409.20
2019-02-04T00:28:46.056Z,87415.50
2019-02-04T00:31:12.810Z,87413.74
2019-02-04T00:33:39.619Z,87422.32
2019-02-04T00:36:06.496Z,87425.48
2019-02-04T00:38:33.237Z,87430.19
2019-02-04T00:40:59.988Z,87433.81
2019-02-04T00:43:26.866Z,87435.47
2019-02-04T00:45:53.601Z,87436.94
2019-02-04T00:48:20.313Z,87448.45
2019-02-04T00:50:47.500Z,87456.37
2019-02-04T00:53:14.203Z,87457.56
2019-02-04T00:55:41.027Z,87468.19
2019-02-04T00:58:07.805Z,87473.45
2019-02-04T01:00:34.547Z,87477.33
2019-02-04T01:03:01.320Z,87483.01
2019-02-04T01:05:28.179Z,87490.39
2019-02-04T01:07:56.017Z,87501.06
2019-02-04T01:10:27.933Z,87503.75
2019-02-04T01:12:54.828Z,87509.73
2019-02-04T01:15:21.566Z,87508.80
2019-02-04T01:17:48.289Z,87517.88
2019-02-04T01:20:29.694Z,87520.04
2019-02-04T01:22:56.944Z,87524.77
2019-02-04T01:25:23.713Z,87530.03
2019-02-04T01:27:50.709Z,87532.66
2019-02-04T01:30:20.542Z,87541.52
2019-02-04T01:32:47.268Z,87551.31
2019-02-04T01:35:14.222Z,87552.17
2019-02-04T01:37:41.313Z,87553.56
2019-02-04T01:40:16.541Z,87554.69
2019-02-04T01:42:43.292Z,87549.45
2019-02-04T01:45:10.036Z,87552.38
2019-02-04T01:47:36.835Z,87563.24
2019-02-04T01:50:08.375Z,87574.58
2019-02-04T01:52:35.432Z,87572.81
2019-02-04T01:55:02.925Z,87573.89
2019-02-04T01:57:29.652Z,87570.11
2019-02-04T01:59:56.378Z,87573.03
2019-02-04T02:02:23.186Z,87577.75
2019-02-04T02:04:49.942Z,87583.20
2019-02-04T02:07:16.716Z,87588.95
2019-02-04T02:09:44.017Z,87592.16
2019-02-04T02:12:10.829Z,87598.16
2019-02-04T02:14:37.588Z,87594.61
2019-02-04T02:17:04.393Z,87596.95
2019-02-04T02:19:31.115Z,87599.80
2019-02-04T02:21:57.837Z,87602.22
2019-02-04T02:24:24.639Z,87612.53
2019-02-04T02:26:51.344Z,87602.78
2019-02-04T02:29:18.119Z,87602.55
2019-02-04T02:31:44.991Z,87606.83
2019-02-04T02:34:11.756Z,87604.03
2019-02-04T02:36:38.545Z,87613.66
2019-02-04T02:39:06.637Z,87611.64
2019-02-04T02:41:33.365Z,87612.16
2019-02-04T02:44:00.146Z,87612.78
2019-02-04T02:46:27.225Z,87615.67
2019-02-04T02:48:53.999Z,87620.34
2019-02-04T02:51:20.705Z,87617.22
2019-02-04T02:53:47.613Z,87627.33
2019-02-04T02:56:14.350Z,87633.28
2019-02-04T02:58:41.144Z,87632.87
2019-02-04T03:01:07.953Z,87628.49
2019-02-04T03:03:34.677Z,87637.73
2019-02-04T03:06:01.403Z,87637.76
2019-02-04T03:08:28.263Z,87640.94
2019-02-04T03:10:55.011Z,87637.11
2019-02-04T03:13:21.752Z,87641.78
2019-02-04T03:15:48.601Z,87648.50
2019-02-04T03:18:15.339Z,87645.22
2019-02-04T03:20:42.065Z,87650.42
2019-02-04T03:23:08.938Z,87651.28
2019-02-04T03:25:35.653Z,87658.77
2019-02-04T03:28:02.404Z,87660.58
2019-02-04T03:30:31.812Z,87658.34
2019-02-04T03:32:58.644Z,87668.20
2019-02-04T03:35:25.383Z,87670.83
2019-02-04T03:37:52.657Z,87668.11
2019-02-04T03:40:28.561Z,87675.85
2019-02-04T03:42:55.429Z,87675.63
2019-02-04T03:45:22.178Z,87670.77
2019-02-04T03:47:48.918Z,87671.82
2019-02-04T03:50:15.798Z,87674.95
2019-02-04T03:52:42.532Z,87677.27
2019-02-04T03:55:11.685Z,87676.55
2019-02-04T03:57:38.574Z,87677.34
2019-02-04T04:00:31.376Z,87681.53
2019-02-04T04:02:58.137Z,87682.06
2019-02-04T04:05:25.265Z,87691.58
2019-02-04T04:07:53.467Z,87696.97
2019-02-04T04:10:20.671Z,87702.62
2019-02-04T04:12:47.391Z,87702.14
2019-02-04T04:15:15.624Z,87705.75
2019-02-04T04:17:42.506Z,87701.69
2019-02-04T04:20:14.988Z,87703.75
2019-02-04T04:22:41.842Z,87698.34
2019-02-04T04:25:14.129Z,87704.33
2019-02-04T04:27:40.990Z,87710.28
2019-02-04T04:30:21.061Z,87710.58
2019-02-04T04:32:47.825Z,87716.25
2019-02-04T04:35:14.873Z,87714.98
2019-02-04T04:37:41.882Z,87715.55
2019-02-04T04:40:11.047Z,87718.15
2019-02-04T04:42:37.800Z,87717.41
2019-02-04T04:45:17.300Z,87718.19
2019-02-04T04:47:44.035Z,87721.02
2019-02-04T04:50:11.193Z,87722.30
2019-02-04T04:52:38.020Z,87715.14
2019-02-04T04:55:21.407Z,87713.89
2019-02-04T04:57:48.353Z,87713.66
2019-02-04T05:00:22.218Z,87715.46
2019-02-04T05:02:48.947Z,87714.45
2019-02-04T05:05:15.831Z,87718.84
2019-02-04T05:07:42.582Z,87721.44
2019-02-04T05:10:18.607Z,87712.48
2019-02-04T05:12:45.348Z,87713.04
2019-02-04T05:15:23.294Z,87709.22
2019-02-04T05:17:52.425Z,87705.65
2019-02-04T05:20:18.529Z,87701.56
2019-02-04T05:22:45.453Z,87712.11
2019-02-04T05:25:12.972Z,87712.11
2019-02-04T05:27:39.708Z,87711.35
2019-02-04T05:30:22.400Z,87712.63
2019-02-04T05:32:49.134Z,87725.52
2019-02-04T05:35:15.845Z,87730.71
2019-02-04T05:37:43.954Z,87724.98
2019-02-04T05:40:14.995Z,87724.28
2019-02-04T05:42:41.838Z,87721.73
2019-02-04T05:45:12.331Z,87729.97
2019-02-04T05:47:39.050Z,87730.27
2019-02-04T05:50:10.126Z,87732.86
2019-02-04T05:52:36.942Z,87731.63
2019-02-04T05:55:05.287Z,87726.81
2019-02-04T05:57:32.022Z,87725.30
2019-02-04T05:59:59.208Z,87728.70
2019-02-04T06:02:25.939Z,87725.36
2019-02-04T06:04:53.073Z,87728.44
2019-02-04T06:07:19.942Z,87738.95
2019-02-04T06:09:46.691Z,87742.27
2019-02-04T06:12:13.436Z,87747.66
2019-02-04T06:14:40.241Z,87752.52
2019-02-04T06:17:07.291Z,87753.84
2019-02-04T06:19:34.508Z,87769.23
2019-02-04T06:22:01.341Z,87773.85
2019-02-04T06:24:28.148Z,87776.92
2019-02-04T06:26:54.890Z,87778.72
2019-02-04T06:29:21.716Z,87780.78
2019-02-04T06:31:48.466Z,87784.13
2019-02-04T06:34:17.441Z,87787.23
2019-02-04T06:36:44.335Z,87790.58
2019-02-04T06:39:11.162Z,87793.14
2019-02-04T06:41:37.920Z,87799.51
2019-02-04T06:44:04.801Z,87809.25
2019-02-04T06:46:31.496Z,87814.14
2019-02-04T06:48:58.250Z,87808.51
2019-02-04T06:51:25.024Z,87817.72
2019-02-04T06:53:51.838Z,87823.62
2019-02-04T06:56:18.620Z,87827.45
2019-02-04T06:58:45.401Z,87830.26
2019-02-04T07:01:12.167Z,87831.30
2019-02-04T07:03:38.893Z,87835.64
2019-02-04T07:06:05.758Z,87836.42
2019-02-04T07:08:32.527Z,87842.56
2019-02-04T07:10:59.664Z,87850.52
2019-02-04T07:13:26.441Z,87850.78
2019-02-04T07:15:53.173Z,87852.81
2019-02-04T07:18:19.909Z,87857.43
2019-02-04T07:20:46.747Z,87854.09
2019-02-04T07:23:13.513Z,87858.20
2019-02-04T07:25:40.238Z,87864.61
2019-02-04T07:28:07.025Z,87863.30
2019-02-04T07:30:34.163Z,87859.72
2019-02-04T07:33:00.871Z,87863.29
2019-02-04T07:35:27.778Z,87873.81
2019-02-04T07:37:54.520Z,87867.13
2019-02-04T07:40:28.537Z,87873.77
2019-02-04T07:42:55.466Z,87871.19
2019-02-04T07:45:25.843Z,87876.55
2019-02-04T07:47:56.743Z,87881.66
2019-02-04T07:50:23.941Z,87886.01
2019-02-04T07:52:50.707Z,87892.91
2019-02-04T07:55:17.411Z,87895.19
2019-02-04T07:57:44.305Z,87895.89
2019-02-04T08:00:24.415Z,87901.51
2019-02-04T08:02:51.306Z,87905.09
2019-02-04T08:05:18.004Z,87904.84
2019-02-04T08:07:44.781Z,87905.58
2019-02-04T08:10:13.843Z,87905.58
2019-02-04T08:12:40.596Z,87908.62
2019-02-04T08:15:17.982Z,87910.60
2019-02-04T08:17:44.735Z,87910.56
2019-02-04T08:20:11.592Z,87914.06
2019-02-04T08:22:38.427Z,87912.18
2019-02-04T08:25:13.287Z,87914.14
2019-02-04T08:27:40.152Z,87920.17
2019-02-04T08:30:18.537Z,87910.60
2019-02-04T08:32:45.459Z,87906.40
2019-02-04T08:35:12.201Z,87906.34
2019-02-04T08:37:38.924Z,87912.67
2019-02-04T08:40:13.719Z,87908.20
2019-02-04T08:42:40.483Z,87912.50
2019-02-04T08:45:10.329Z,87910.63
2019-02-04T08:47:37.210Z,87915.94
2019-02-04T08:50:08.870Z,87918.94
2019-02-04T08:52:35.619Z,87915.23
2019-02-04T08:55:02.714Z,87916.73
2019-02-04T08:57:29.440Z,87917.99
2019-02-04T08:59:56.158Z,87920.01
2019-02-04T09:02:23.047Z,87923.79
2019-02-04T09:04:49.909Z,87928.92
2019-02-04T09:07:16.655Z,87931.52
2019-02-04T09:09:43.509Z,87933.27
2019-02-04T09:12:10.260Z,87936.83
2019-02-04T09:14:36.997Z,87940.61
2019-02-04T09:17:03.810Z,87942.94
2019-02-04T09:19:30.553Z,87942.39
2019-02-04T09:21:57.272Z,87947.00
2019-02-04T09:24:24.404Z,87946.98
2019-02-04T09:26:51.128Z,87939.97
2019-02-04T09:29:17.875Z,87939.34
2019-02-04T09:31:44.702Z,87942.67
2019-02-04T09:34:11.543Z,87945.88
2019-02-04T09:36:38.306Z,87956.30
2019-02-04T09:39:07.233Z,87953.95
2019-02-04T09:41:34.310Z,87959.02
2019-02-04T09:44:01.046Z,87957.91
2019-02-04T09:46:27.867Z,87959.07
2019-02-04T09:48:54.633Z,87956.11
2019-02-04T09:51:21.353Z,87956.27
2019-02-04T09:53:48.261Z,87956.92
2019-02-04T09:56:14.978Z,87969.50
2019-02-04T09:58:41.772Z,87961.50
2019-02-04T10:01:09.013Z,87968.40
2019-02-04T10:03:35.706Z,87965.17
2019-02-04T10:06:02.440Z,87969.48
2019-02-04T10:08:29.347Z,87970.94
2019-02-04T10:10:56.092Z,87976.84
2019-02-04T10:13:22.838Z,87973.86
2019-02-04T10:15:49.639Z,87968.06
2019-02-04T10:18:16.934Z,87962.09
2019-02-04T10:20:43.647Z,87963.28
2019-02-04T10:23:10.497Z,87961.88
2019-02-04T10:25:41.531Z,87957.63
2019-02-04T10:28:09.859Z,87954.72
2019-02-04T10:30:36.735Z,87957.73
2019-02-04T10:33:03.477Z,87955.55
2019-02-04T10:35:30.640Z,87953.66
2019-02-04T10:37:57.497Z,87952.42
2019-02-04T10:40:29.173Z,87952.05
2019-02-04T10:42:55.991Z,87946.97
2019-02-04T10:45:22.902Z,87947.79
2019-02-04T10:47:49.695Z,87948.43
2019-02-04T10:50:29.370Z,87948.95
2019-02-04T10:52:59.917Z,87950.24
2019-02-04T10:55:26.620Z,87951.75
2019-02-04T10:57:53.561Z,87957.52
2019-02-04T11:00:30.371Z,87958.38
2019-02-04T11:02:57.244Z,87959.37
2019-02-04T11:05:34.298Z,87955.20
2019-02-04T11:08:01.066Z,87949.72
2019-02-04T11:10:28.537Z,87949.17
2019-02-04T11:12:55.256Z,87955.07
2019-02-04T11:15:22.112Z,87947.66
2019-02-04T11:17:48.879Z,87948.61
2019-02-04T11:20:27.584Z,87950.11
2019-02-04T11:22:54.338Z,87943.59
2019-02-04T11:25:21.068Z,87954.20
2019-02-04T11:27:47.953Z,87949.76
2019-02-04T11:30:22.377Z,87953.98
2019-02-04T11:32:49.594Z,87945.66
2019-02-04T11:35:16.322Z,87945.92
2019-02-04T11:37:43.092Z,87947.16
2019-02-04T11:40:24.647Z,87945.30
2019-02-04T11:42:51.405Z,87946.59
2019-02-04T11:45:18.256Z,87949.00
2019-02-04T11:47:45.695Z,87942.69
2019-02-04T11:50:13.692Z,87940.53
2019-02-04T11:52:40.416Z,87941.62
2019-02-04T11:55:16.153Z,87944.53
2019-02-04T11:57:43.611Z,87942.36
2019-02-04T12:00:30.194Z,87946.20
2019-02-04T12:02:59.127Z,87942.02
2019-02-04T12:05:25.866Z,87943.77
2019-02-04T12:07:52.770Z,87940.80
2019-02-04T12:10:29.632Z,87936.13
2019-02-04T12:12:56.866Z,87932.80
2019-02-04T12:15:23.627Z,87923.20
2019-02-04T12:17:50.364Z,87913.83
2019-02-04T12:20:17.769Z,87914.80
2019-02-04T12:22:44.483Z,87913.62
2019-02-04T12:25:15.849Z,87911.32
2019-02-04T12:27:42.702Z,87899.34
2019-02-04T12:30:15.141Z,87902.86
2019-02-04T12:32:41.906Z,87904.39
2019-02-04T12:35:11.283Z,87904.67
2019-02-04T12:37:38.612Z,87901.89
2019-02-04T12:40:09.984Z,87911.25
2019-02-04T12:42:36.822Z,87900.58
2019-02-04T12:45:15.556Z,87904.16
2019-02-04T12:47:42.510Z,87904.03
2019-02-04T12:50:11.356Z,87904.14
2019-02-04T12:52:38.091Z,87891.47
2019-02-04T12:55:10.286Z,87891.87
2019-02-04T12:57:37.027Z,87880.10
2019-02-04T13:00:12.192Z,87883.44
2019-02-04T13:02:39.109Z,87881.90
2019-02-04T13:05:13.814Z,87876.76
2019-02-04T13:07:40.546Z,87871.16
2019-02-04T13:10:11.873Z,87869.28
2019-02-04T13:12:39.418Z,87872.95
2019-02-04T13:15:11.563Z,87874.98
2019-02-04T13:17:38.385Z,87882.61
2019-02-04T13:20:09.482Z,87882.81
2019-02-04T13:22:36.200Z,87890.83
2019-02-04T13:25:07.104Z,87880.00
2019-02-04T13:27:34.106Z,87883.98
2019-02-04T13:30:00.869Z,87875.52
2019-02-04T13:32:27.694Z,87867.30
2019-02-04T13:34:54.445Z,87867.44
2019-02-04T13:37:21.196Z,87864.34
2019-02-04T13:39:47.985Z,87871.12
2019-02-04T13:42:14.744Z,87863.61
2019-02-04T13:44:41.849Z,87864.50
2019-02-04T13:47:08.697Z,87857.12
2019-02-04T13:49:35.431Z,87855.32
2019-02-04T13:52:02.158Z,87864.65
2019-02-04T13:54:29.076Z,87852.93
2019-02-04T13:56:55.827Z,87848.11
2019-02-04T13:59:22.561Z,87857.23
2019-02-04T14:01:49.456Z,87852.95
2019-02-04T14:04:16.188Z,87852.95
2019-02-04T14:06:42.942Z,87847.54
2019-02-04T14:09:14.559Z,87843.82
2019-02-04T14:11:41.303Z,87844.64
2019-02-04T14:14:08.106Z,87842.92
2019-02-04T14:16:34.983Z,87841.91
2019-02-04T14:19:02.035Z,87841.29
2019-02-04T14:21:28.829Z,87838.06
2019-02-04T14:23:55.703Z,87838.63
2019-02-04T14:26:22.473Z,87847.05
2019-02-04T14:28:49.239Z,87840.17
2019-02-04T14:31:16.107Z,87842.83
2019-02-04T14:33:42.865Z,87846.38
2019-02-04T14:36:09.646Z,87844.31
2019-02-04T14:38:36.521Z,87848.09
2019-02-04T14:41:03.307Z,87850.68
2019-02-04T14:43:30.433Z,87849.78
2019-02-04T14:46:20.790Z,87852.25
2019-02-04T14:48:58.873Z,87859.48
2019-02-04T14:51:58.453Z,87860.17
2019-02-04T14:54:54.311Z,87856.68
2019-02-04T14:57:38.719Z,87856.34
2019-02-04T15:00:22.728Z,87860.86
2019-02-04T15:03:19.821Z,87853.31
2019-02-04T15:06:22.305Z,87855.02
2019-02-04T15:09:16.331Z,87858.35
2019-02-04T15:12:00.449Z,87854.83
2019-02-04T15:15:11.071Z,87852.02
2019-02-04T15:17:43.265Z,87850.47
2019-02-04T15:20:42.851Z,87851.95
2019-02-04T15:23:27.104Z,87846.83
2019-02-04T15:26:08.426Z,87855.20
2019-02-04T15:28:52.130Z,87847.56
2019-02-04T15:31:45.534Z,87855.38
2019-02-04T15:34:43.094Z,87865.25
2019-02-04T15:37:23.596Z,87864.55
2019-02-04T15:39:58.866Z,87872.32
2019-02-04T15:42:52.855Z,87873.09
2019-02-04T15:46:01.241Z,87866.68
2019-02-04T15:48:36.316Z,87867.84
2019-02-04T15:53:52.565Z,87870.05
2019-02-04T15:56:22.519Z,87878.45
2019-02-04T15:58:49.264Z,87876.68
2019-02-04T16:01:16.185Z,87877.45
2019-02-04T16:03:42.954Z,87880.55
2019-02-04T16:06:09.744Z,87873.10
2019-02-04T16:08:36.655Z,87875.13
2019-02-04T16:11:03.804Z,87879.55
2019-02-04T16:13:30.564Z,87874.94
2019-02-04T16:15:57.483Z,87888.63
2019-02-04T16:18:24.255Z,87887.89
2019-02-04T16:20:51.064Z,87888.41
2019-02-04T16:23:18.009Z,87886.62
2019-02-04T16:25:44.813Z,87897.20
2019-02-04T16:28:11.588Z,87904.21
2019-02-04T16:30:38.433Z,87918.67
2019-02-04T16:33:05.223Z,87917.18
2019-02-04T16:35:32.022Z,87916.78
2019-02-04T16:37:58.952Z,87920.73
2019-02-04T16:40:26.025Z,87923.89
2019-02-04T16:42:52.921Z,87929.45
2019-02-04T16:45:22.884Z,87929.51
2019-02-04T16:47:50.259Z,87932.62
2019-02-04T16:50:23.399Z,87928.80
2019-02-04T16:52:50.377Z,87934.52
2019-02-04T16:55:17.285Z,87935.59
2019-02-04T16:57:44.064Z,87933.02
2019-02-04T17:00:15.853Z,87933.86
2019-02-04T17:02:43.106Z,87929.81
2019-02-04T17:05:13.178Z,87932.16
2019-02-04T17:07:40.122Z,87931.89
2019-02-04T17:10:24.501Z,87933.20
2019-02-04T17:12:51.540Z,87931.14
2019-02-04T17:15:18.321Z,87933.71
2019-02-04T17:17:45.318Z,87932.23
2019-02-04T17:20:31.691Z,87939.48
2019-02-04T17:22:58.495Z,87945.94
2019-02-04T17:25:25.462Z,87947.75
2019-02-04T17:27:52.408Z,87956.53
2019-02-04T17:30:22.412Z,87957.05
2019-02-04T17:32:49.230Z,87958.67
2019-02-04T17:35:16.154Z,87960.53
2019-02-04T17:37:42.982Z,87961.59
2019-02-04T17:40:14.091Z,87957.01
2019-02-04T17:42:40.926Z,87959.05
2019-02-04T17:45:14.062Z,87959.33
2019-02-04T17:47:40.967Z,87965.48
2019-02-04T17:50:14.408Z,87959.91
2019-02-04T17:52:43.129Z,87962.75
2019-02-04T17:55:16.235Z,87967.41
2019-02-04T17:57:43.046Z,87962.55
2019-02-04T18:00:20.501Z,87960.50
2019-02-04T18:02:47.415Z,87957.98
2019-02-04T18:05:14.442Z,87967.02
2019-02-04T18:07:41.538Z,87967.30
2019-02-04T18:10:21.121Z,87965.54
2019-02-04T18:12:50.293Z,87972.48
2019-02-04T18:15:21.950Z,87969.44
2019-02-04T18:17:48.825Z,87970.25
2019-02-04T18:20:15.825Z,87975.66
2019-02-04T18:22:42.610Z,87973.59
2019-02-04T18:25:19.374Z,87975.17
2019-02-04T18:27:46.704Z,87977.52
2019-02-04T18:30:25.378Z,87977.03
2019-02-04T18:32:52.189Z,87983.17
2019-02-04T18:35:19.495Z,87975.25
2019-02-04T18:37:46.455Z,87980.41
2019-02-04T18:40:19.223Z,87981.97
2019-02-04T18:42:46.440Z,87985.54
2019-02-04T18:45:28.084Z,87993.52
2019-02-04T18:47:54.907Z,87994.55
2019-02-04T18:50:22.330Z,87998.41
2019-02-04T18:52:49.784Z,87998.17
2019-02-04T18:55:26.700Z,88008.17
2019-02-04T18:57:53.683Z,88009.45
2019-02-04T19:00:28.992Z,88012.03
2019-02-04T19:02:56.048Z,88016.16
2019-02-04T19:05:22.844Z,88019.00
2019-02-04T19:07:49.645Z,88018.50
2019-02-04T19:10:19.987Z,88018.77
2019-02-04T19:12:46.795Z,88024.14
2019-02-04T19:15:16.496Z,88028.53
2019-02-04T19:17:43.358Z,88037.52
2019-02-04T19:20:14.903Z,88038.80
2019-02-04T19:22:41.700Z,88041.10
2019-02-04T19:25:12.633Z,88043.42
2019-02-04T19:27:39.420Z,88044.72
2019-02-04T19:30:14.485Z,88048.86
2019-02-04T19:32:41.410Z,88037.05
2019-02-04T19:35:09.834Z,88042.72
2019-02-04T19:37:36.622Z,88051.96
2019-02-04T19:40:08.634Z,88049.63
2019-02-04T19:42:35.409Z,88046.55
2019-02-04T19:45:06.305Z,88049.66
2019-02-04T19:47:33.077Z,88047.84
2019-02-04T19:49:59.889Z,88049.39
2019-02-04T19:52:26.881Z,88056.31
2019-02-04T19:54:53.819Z,88056.30
2019-02-04T19:57:20.614Z,88060.42
2019-02-04T19:59:47.436Z,88052.73
2019-02-04T20:02:14.257Z,88054.78
2019-02-04T20:04:41.045Z,88054.52
2019-02-04T20:07:09.656Z,88055.80
2019-02-04T20:09:37.242Z,88056.58
2019-02-04T20:12:04.045Z,88050.94
2019-02-04T20:14:30.868Z,88051.95
2019-02-04T20:16:57.823Z,88057.84
2019-02-04T20:19:24.613Z,88058.37
2019-02-04T20:21:51.426Z,88059.38
2019-02-04T20:24:18.367Z,88060.41
2019-02-04T20:26:45.160Z,88060.91
2019-02-04T20:29:12.345Z,88072.71
2019-02-04T20:31:39.294Z,88061.67
2019-02-04T20:34:06.117Z,88060.91
2019-02-04T20:36:32.917Z,88061.69
2019-02-04T20:38:59.861Z,88063.97
2019-02-04T20:41:26.639Z,88060.13
2019-02-04T20:43:53.436Z,88064.95
2019-02-04T20:46:20.276Z,88057.28
2019-02-04T20:48:47.482Z,88061.64
2019-02-04T20:51:14.274Z,88060.87
2019-02-04T20:53:41.195Z,88063.95
2019-02-04T20:56:08.176Z,88065.23
2019-02-04T20:58:34.965Z,88067.29
2019-02-04T21:01:01.906Z,88067.78
2019-02-04T21:03:28.694Z,88068.56
2019-02-04T21:05:55.484Z,88063.95
2019-02-04T21:08:22.493Z,88069.05
2019-02-04T21:10:49.320Z,88064.44
2019-02-04T21:13:16.122Z,88061.62
2019-02-04T21:15:43.065Z,88061.35
2019-02-04T21:18:09.862Z,88056.00
2019-02-04T21:20:36.654Z,88054.44
2019-02-04T21:23:03.591Z,88048.55
2019-02-04T21:25:30.814Z,88058.05
2019-02-04T21:27:57.598Z,88056.00
2019-02-04T21:30:27.542Z,88057.02
2019-02-04T21:32:54.339Z,88057.00
2019-02-04T21:35:21.134Z,88059.54
2019-02-04T21:37:48.097Z,88056.46
2019-02-04T21:40:16.998Z,88063.39
2019-02-04T21:42:44.169Z,88062.09
2019-02-04T21:45:23.190Z,88055.41
2019-02-04T21:47:49.973Z,88063.58
2019-02-04T21:50:24.110Z,88073.25
2019-02-04T21:52:50.970Z,88074.27
2019-02-04T21:55:17.858Z,88072.99
2019-02-04T21:57:44.873Z,88070.16
2019-02-04T22:00:21.724Z,88068.62
2019-02-04T22:02:48.522Z,88074.77
2019-02-04T22:05:19.045Z,88075.02
2019-02-04T22:07:45.933Z,88073.23
2019-02-04T22:10:16.830Z,88073.45
2019-02-04T22:12:43.624Z,88074.20
2019-02-04T22:15:10.468Z,88070.63
2019-02-04T22:17:37.266Z,88072.42
2019-02-04T22:20:14.494Z,88069.61
2019-02-04T22:22:41.262Z,88061.66
2019-02-04T22:25:19.450Z,88065.03
2019-02-04T22:27:39.698Z,88058.11
2019-02-04T22:30:16.412Z,88057.59
2019-02-04T22:32:43.251Z,88050.17
2019-02-04T22:35:10.331Z,88053.74
2019-02-04T22:37:37.107Z,88051.48
2019-02-04T22:40:18.276Z,88053.29
2019-02-04T22:42:45.068Z,88046.12
2019-02-04T22:45:14.949Z,88053.53
2019-02-04T22:47:41.831Z,88051.22
2019-02-04T22:50:24.813Z,88046.35
2019-02-04T22:52:51.854Z,88046.06
2019-02-04T22:55:18.651Z,88037.61
2019-02-04T22:57:45.455Z,88044.00
2019-02-04T23:01:10.768Z,88042.70
2019-02-04T23:03:37.548Z,88043.97
2019-02-04T23:06:04.349Z,88047.00
2019-02-04T23:08:31.195Z,88043.94
2019-02-04T23:10:57.989Z,88037.00
2019-02-04T23:13:24.757Z,88044.95
2019-02-04T23:15:53.987Z,88042.89
2019-02-04T23:18:20.585Z,88051.59
2019-02-04T23:20:47.378Z,88046.45
2019-02-04T23:23:14.241Z,88047.47
2019-02-04T23:25:43.554Z,88044.92
2019-02-04T23:28:09.612Z,88043.62
2019-02-04T23:30:36.473Z,88044.69
2019-02-04T23:33:03.956Z,88044.91
2019-02-04T23:35:30.755Z,88043.10
2019-02-04T23:37:57.679Z,88041.59
2019-02-04T23:40:24.468Z,88042.08
2019-02-04T23:42:51.246Z,88036.43
2019-02-04T23:45:18.123Z,88041.01
2019-02-04T23:47:44.922Z,88037.44
2019-02-04T23:50:14.917Z,88032.83
2019-02-04T23:52:41.826Z,88032.31
2019-02-04T23:55:10.280Z,88034.87
2019-02-04T23:57:37.067Z,88035.12
